createdAt,value
2019-02-22T00:06:06.182Z,74.40
2019-02-22T00:16:08.684Z,63.28
2019-02-22T00:26:11.634Z,64.87
2019-02-22T00:36:14.103Z,57.53
2019-02-22T00:46:17.655Z,54.50
2019-02-22T01:06:21.450Z,59.83
2019-02-22T01:16:23.530Z,53.08
2019-02-22T01:26:25.499Z,50.15
2019-02-22T01:36:28.447Z,55.33
2019-02-22T01:46:32.401Z,62.08
2019-02-22T01:56:34.390Z,65.62
2019-02-22T02:06:36.575Z,70.75
2019-02-22T02:16:38.956Z,66.87
2019-02-22T02:26:41.096Z,72.97
2019-02-22T02:36:43.263Z,73.52
2019-02-22T02:46:45.321Z,75.42
2019-02-22T02:56:47.273Z,68.90
2019-02-22T03:06:49.297Z,68.62
2019-02-22T03:16:51.225Z,70.12
2019-02-22T03:26:53.209Z,68.15
2019-02-22T03:36:55.505Z,63.55
2019-02-22T03:46:58.239Z,70.07
2019-02-22T03:57:00.546Z,75.30
2019-02-22T04:07:02.520Z,78.03
2019-02-22T04:17:04.726Z,88.62
2019-02-22T04:27:08.469Z,90.55
2019-02-22T04:37:10.715Z,88.03
2019-02-22T04:47:12.720Z,88.92
2019-02-22T04:57:14.699Z,81.63
2019-02-22T05:07:17.240Z,83.22
2019-02-22T05:17:19.255Z,87.87
2019-02-22T05:27:21.722Z,78.65
2019-02-22T05:37:24.321Z,87.00
2019-02-22T05:47:26.590Z,91.20
2019-02-22T05:57:28.829Z,99.25
2019-02-22T06:07:30.874Z,102.70
2019-02-22T06:17:32.950Z,104.32
2019-02-22T06:27:35.321Z,94.67
2019-02-22T06:37:37.459Z,99.13
2019-02-22T06:47:39.620Z,87.30
2019-02-22T06:57:41.727Z,90.65
2019-02-22T07:07:44.033Z,85.90
2019-02-22T07:17:46.423Z,93.95
2019-02-22T07:27:48.585Z,92.43
2019-02-22T07:37:50.817Z,85.15
2019-02-22T07:47:52.980Z,119.57
2019-02-22T07:57:54.982Z,113.17
2019-02-22T08:07:57.377Z,126.67
2019-02-22T08:17:59.346Z,127.63
2019-02-22T08:28:01.587Z,134.82
2019-02-22T08:38:04.063Z,123.92
2019-02-22T08:48:06.305Z,125.13
2019-02-22T08:58:08.386Z,114.80
2019-02-22T09:08:10.370Z,106.70
2019-02-22T09:18:13.723Z,99.13
2019-02-22T09:28:15.931Z,105.67
2019-02-22T09:38:17.909Z,81.87
2019-02-22T09:48:20.198Z,77.12
2019-02-22T09:58:22.511Z,58.20
2019-02-22T10:08:24.811Z,79.73
2019-02-22T10:18:26.878Z,66.53
2019-02-22T10:28:28.907Z,59.08
2019-02-22T10:38:35.827Z,55.08
2019-02-22T10:48:38.270Z,57.75
2019-02-22T10:58:40.579Z,55.67
2019-02-22T11:08:43.123Z,48.27
2019-02-22T11:18:45.093Z,43.83
2019-02-22T11:28:49.088Z,25.82
2019-02-22T11:38:50.919Z,21.90
2019-02-22T11:48:55.926Z,11.08
2019-02-22T11:58:59.210Z,9.80
2019-02-22T12:09:01.228Z,14.05
2019-02-22T12:19:03.529Z,10.20
2019-02-22T12:29:05.492Z,14.63
2019-02-22T12:39:08.510Z,11.83
2019-02-22T12:49:10.449Z,10.00
2019-02-22T12:59:12.454Z,7.42
2019-02-22T13:09:14.511Z,9.55
2019-02-22T13:19:16.559Z,14.20
2019-02-22T13:29:18.800Z,12.53
2019-02-22T13:39:20.872Z,12.37
2019-02-22T13:49:23.070Z,12.07
2019-02-22T13:59:25.031Z,13.93
2019-02-22T14:09:27.016Z,12.00
2019-02-22T14:19:29.041Z,16.85
2019-02-22T14:29:31.031Z,18.70
2019-02-22T14:39:33.025Z,14.38
2019-02-22T14:49:34.975Z,17.00
2019-02-22T14:59:36.975Z,19.25
2019-02-22T15:09:39.266Z,17.50
2019-02-22T15:19:41.526Z,14.90
2019-02-22T15:29:43.472Z,11.77
2019-02-22T15:39:45.444Z,13.90
2019-02-22T15:49:48.938Z,13.55
2019-02-22T15:59:51.397Z,17.25
2019-02-22T16:09:54.699Z,12.80
2019-02-22T16:19:57.691Z,14.38
2019-02-22T16:30:00.006Z,13.25
2019-02-22T16:40:02.576Z,17.77
2019-02-22T16:50:06.358Z,17.40
2019-02-22T17:00:10.259Z,21.42
2019-02-22T17:10:13.024Z,26.27
2019-02-22T17:20:15.102Z,23.02
2019-02-22T17:30:17.319Z,23.95
2019-02-22T17:40:19.431Z,26.97
2019-02-22T17:50:21.613Z,25.92
2019-02-22T18:00:23.763Z,27.00
2019-02-22T18:10:25.880Z,23.60
2019-02-22T18:20:28.312Z,31.05
2019-02-22T18:30:30.382Z,25.17
2019-02-22T18:40:32.733Z,25.35
2019-02-22T18:50:34.961Z,27.63
2019-02-22T19:00:37.062Z,35.03
2019-02-22T19:10:40.863Z,34.70
2019-02-22T19:20:44.658Z,61.48
2019-02-22T19:30:47.061Z,34.95
2019-02-22T19:40:49.757Z,77.07
2019-02-22T19:50:52.161Z,41.57
2019-02-22T20:00:54.136Z,42.07
2019-02-22T20:10:56.536Z,41.37
2019-02-22T20:20:58.494Z,39.93
2019-02-22T20:31:00.531Z,55.73
2019-02-22T20:41:02.656Z,53.95
2019-02-22T20:51:04.652Z,57.95
2019-02-22T21:01:14.442Z,63.23
2019-02-22T21:11:10.978Z,74.58
2019-02-22T21:21:14.206Z,50.53
2019-02-22T21:31:16.335Z,49.85
2019-02-22T21:41:18.440Z,54.38
2019-02-22T21:51:20.454Z,55.23
2019-02-22T22:01:22.767Z,53.25
2019-02-22T22:11:24.760Z,50.50
2019-02-22T22:21:26.714Z,57.48
2019-02-22T22:31:28.718Z,50.25
2019-02-22T22:41:30.911Z,44.15
2019-02-22T22:51:32.900Z,61.33
2019-02-22T23:01:34.910Z,44.25
2019-02-22T23:11:37.395Z,41.77
2019-02-22T23:21:39.981Z,49.67
2019-02-22T23:31:42.071Z,41.63
2019-02-22T23:41:44.150Z,39.75
2019-02-22T23:51:46.153Z,36.58
